Hauptseite
METAR-TAF:

METAR-TAF

Flughäfen :

Flughafen Dubai

Dubai, Vereinigte Arabische Emirate

Breite: 25-15-10N, Länge: 055-21-52E, Höhe: 8 m

Beobachtung

Neuester Wetterbericht von vor 1 Stunde und 0 Minuten, um 21:00 UTC
Wind 8 kt aus Süd
Temperatur 34°C
Luftfeuchtigkeit 63%
Luftdruck 994 hPa
Sichtweite 10 km oder mehr
keine Wolken unter 1500 m und keine Kumulonimbus oder Gewitterwolken

METAR: OMDB 162100Z 19008KT CAVOK 34/26 Q0994 NOSIG

Zeit: 02:00 (22:00 UTC)

Prognose

Neuester Wetterbericht von vor 5 Stunden und 8 Minuten, um 16:52 UTC
Gültige Prognose vom 16 um 18 UTC bis 18 um 00 UTC
Wind 8 kt aus Süd/Südwest
Sichtweite: 8000 m
Übergehend zu
vom 17 um 06 UTC bis 17 um 08 UTC
Wind 13 kt aus West
Übergehend zu
vom 17 um 17 UTC bis 17 um 19 UTC
Wind 7 kt aus Süd/Südwest

TAF: OMDB 161652Z 1618/1800 20008KT 8000 NSC BECMG 1706/1708 27013KT BECMG 1717/1719 20007KT

Wetterbeobachtungen und Prognosen von mehr als 4000 Flughäfen (METAR und TAF Bericht).

Die verfügbaren Stationen werden durch gelbe und rote Markierungen auf der Karte dargestellt.

Führen Sie die Maus auf sie, um den Namen der Station zu sehen.

Darauf klicken, um die Beobachtung von Wetterbeobachtungen und Prognosen zu sehen.

Um die Karte zu ändern : klicken Sie auf den grünen Tasten mit einem schwarzen Kreuz Zum Vergrößern, auf den grünen Button mit einem Gedankenstrich zu verkleinern, oder auf die grünen Pfeile für benachbarte Karten.


METAR-TAF: